createdAt,value
2023-02-11T00:00:41.828Z,26.40
2023-02-11T00:03:11.278Z,26.83
2023-02-11T00:05:39.309Z,25.77
2023-02-11T00:08:07.354Z,25.40
2023-02-11T00:10:35.340Z,25.47
2023-02-11T00:13:03.430Z,23.43
2023-02-11T00:15:31.564Z,21.30
2023-02-11T00:17:59.537Z,20.77
2023-02-11T00:20:28.908Z,20.90
2023-02-11T00:22:56.941Z,19.90
2023-02-11T00:25:25.210Z,20.80
2023-02-11T00:27:53.168Z,19.77
2023-02-11T00:30:21.290Z,20.17
2023-02-11T00:32:49.256Z,20.23
2023-02-11T00:35:17.706Z,19.60
2023-02-11T00:37:47.117Z,20.67
2023-02-11T00:40:16.105Z,19.90
2023-02-11T00:42:44.180Z,19.67
2023-02-11T00:45:12.309Z,20.17
2023-02-11T00:47:40.490Z,19.17
2023-02-11T00:50:08.617Z,19.17
2023-02-11T00:52:36.654Z,20.47
2023-02-11T00:55:06.514Z,19.90
2023-02-11T00:57:34.490Z,19.30
2023-02-11T01:00:02.448Z,19.83
2023-02-11T01:02:30.513Z,18.37
2023-02-11T01:04:59.835Z,17.80
2023-02-11T01:07:28.042Z,18.10
2023-02-11T01:09:56.036Z,19.17
2023-02-11T01:12:25.743Z,17.97
2023-02-11T01:14:53.707Z,17.70
2023-02-11T01:17:21.641Z,17.20
2023-02-11T01:19:49.671Z,17.43
2023-02-11T01:22:17.675Z,17.73
2023-02-11T01:24:46.304Z,18.47
2023-02-11T01:27:14.236Z,18.17
2023-02-11T01:29:43.560Z,17.13
2023-02-11T01:32:11.668Z,17.90
2023-02-11T01:34:39.797Z,17.27
2023-02-11T01:37:07.946Z,17.10
2023-02-11T01:39:36.492Z,17.47
2023-02-11T01:42:04.881Z,16.17
2023-02-11T01:44:34.994Z,16.83
2023-02-11T01:47:04.901Z,16.50
2023-02-11T01:49:35.288Z,17.33
2023-02-11T01:52:07.000Z,16.60
2023-02-11T01:54:56.516Z,17.00
2023-02-11T01:57:27.422Z,17.30
2023-02-11T02:00:04.791Z,17.57
2023-02-11T02:02:44.917Z,16.47
2023-02-11T02:05:24.231Z,16.00
2023-02-11T02:08:00.020Z,15.93
2023-02-11T02:10:29.987Z,16.90
2023-02-11T02:12:58.259Z,17.47
2023-02-11T02:15:29.846Z,17.60
2023-02-11T02:18:10.208Z,17.60
2023-02-11T02:21:09.089Z,18.33
2023-02-11T02:23:52.810Z,16.43
2023-02-11T02:27:02.653Z,15.30
2023-02-11T02:30:11.942Z,15.20
2023-02-11T02:33:21.414Z,15.63
2023-02-11T02:35:59.609Z,15.43
2023-02-11T02:38:32.709Z,14.80
2023-02-11T02:41:05.268Z,14.70
2023-02-11T02:43:35.331Z,13.30
2023-02-11T02:46:14.832Z,13.40
2023-02-11T02:48:45.443Z,14.40
2023-02-11T02:51:28.925Z,13.80
2023-02-11T02:54:13.532Z,14.17
2023-02-11T02:56:47.793Z,14.13
2023-02-11T02:59:29.889Z,13.83
2023-02-11T03:02:07.643Z,14.20
2023-02-11T03:04:45.469Z,13.40
2023-02-11T03:07:24.051Z,13.70
2023-02-11T03:09:59.604Z,13.53
2023-02-11T03:12:31.185Z,13.57
2023-02-11T03:15:02.520Z,12.83
2023-02-11T03:17:33.047Z,13.17
2023-02-11T03:20:04.703Z,13.00
2023-02-11T03:22:38.730Z,12.73
2023-02-11T03:25:07.541Z,12.43
2023-02-11T03:27:42.601Z,12.43
2023-02-11T03:30:17.528Z,12.50
2023-02-11T03:32:52.376Z,12.77
2023-02-11T03:35:25.632Z,12.90
2023-02-11T03:37:57.739Z,12.67
2023-02-11T03:40:29.044Z,12.80
2023-02-11T03:43:00.666Z,12.10
2023-02-11T03:45:29.765Z,12.20
2023-02-11T03:48:05.953Z,12.07
2023-02-11T03:50:37.413Z,12.03
2023-02-11T03:53:06.617Z,12.57
2023-02-11T03:55:38.007Z,12.07
2023-02-11T03:58:06.047Z,10.90
2023-02-11T04:00:35.249Z,11.47
2023-02-11T04:03:03.661Z,11.17
2023-02-11T04:05:31.923Z,11.27
2023-02-11T04:08:01.353Z,11.97
2023-02-11T04:10:29.501Z,11.30
2023-02-11T04:12:57.466Z,11.90
2023-02-11T04:15:25.652Z,12.10
2023-02-11T04:17:53.670Z,11.80
2023-02-11T04:20:21.827Z,12.60
2023-02-11T04:22:49.835Z,11.73
2023-02-11T04:25:19.244Z,11.00
2023-02-11T04:27:47.165Z,11.17
2023-02-11T04:30:15.428Z,11.60
2023-02-11T04:32:43.529Z,10.63
2023-02-11T04:35:11.582Z,10.80
2023-02-11T04:37:39.569Z,11.30
2023-02-11T04:40:08.762Z,11.30
2023-02-11T04:42:38.092Z,10.90
2023-02-11T04:45:07.263Z,11.07
2023-02-11T04:47:36.223Z,11.17
2023-02-11T04:50:04.218Z,11.57
2023-02-11T04:52:32.244Z,11.20
2023-02-11T04:55:00.218Z,12.07
2023-02-11T04:57:28.161Z,12.20
2023-02-11T04:59:57.482Z,10.33
2023-02-11T05:02:25.536Z,10.53
2023-02-11T05:04:53.487Z,10.73
2023-02-11T05:07:21.512Z,10.53
2023-02-11T05:09:49.448Z,11.23
2023-02-11T05:12:17.416Z,10.77
2023-02-11T05:14:45.442Z,10.67
2023-02-11T05:17:14.853Z,10.70
2023-02-11T05:19:43.024Z,10.90
2023-02-11T05:22:11.010Z,10.03
2023-02-11T05:24:39.106Z,10.67
2023-02-11T05:27:07.049Z,10.50
2023-02-11T05:29:34.976Z,9.07
2023-02-11T05:32:02.979Z,9.60
2023-02-11T05:34:32.378Z,9.73
2023-02-11T05:37:00.507Z,9.50
2023-02-11T05:39:28.634Z,10.07
2023-02-11T05:41:56.715Z,10.50
2023-02-11T05:44:24.738Z,10.90
2023-02-11T05:46:52.753Z,10.30
2023-02-11T05:49:20.993Z,10.07
2023-02-11T05:51:50.426Z,9.73
2023-02-11T05:54:18.405Z,9.20
2023-02-11T05:56:46.484Z,9.47
2023-02-11T05:59:15.412Z,9.50
2023-02-11T06:01:43.445Z,9.37
2023-02-11T06:04:11.450Z,9.50
2023-02-11T06:06:39.504Z,8.80
2023-02-11T06:09:08.882Z,9.37
2023-02-11T06:11:36.832Z,9.30
2023-02-11T06:14:05.107Z,8.87
2023-02-11T06:16:33.040Z,8.80
2023-02-11T06:19:00.967Z,9.10
2023-02-11T06:21:43.013Z,8.67
2023-02-11T06:24:13.520Z,9.30
2023-02-11T06:26:41.644Z,8.43
2023-02-11T06:29:09.934Z,8.53
2023-02-11T06:31:39.103Z,7.80
2023-02-11T06:34:07.341Z,8.27
2023-02-11T06:36:35.395Z,8.00
2023-02-11T06:39:03.409Z,7.60
2023-02-11T06:41:32.858Z,8.13
2023-02-11T06:44:00.789Z,8.87
2023-02-11T06:46:28.834Z,8.23
2023-02-11T06:48:57.198Z,8.33
2023-02-11T06:51:25.517Z,8.60
2023-02-11T06:53:53.520Z,9.20
2023-02-11T06:56:23.368Z,8.17
2023-02-11T06:58:55.971Z,9.07
2023-02-11T07:01:25.434Z,8.67
2023-02-11T07:03:53.914Z,8.67
2023-02-11T07:06:23.883Z,8.17
2023-02-11T07:08:51.870Z,8.27
2023-02-11T07:11:24.388Z,7.93
2023-02-11T07:13:54.565Z,9.50
2023-02-11T07:16:22.807Z,9.20
2023-02-11T07:18:51.077Z,8.50
2023-02-11T07:21:21.442Z,9.17
2023-02-11T07:23:49.778Z,8.40
2023-02-11T07:26:20.020Z,8.73
2023-02-11T07:28:48.147Z,7.50
2023-02-11T07:31:19.736Z,13.00
2023-02-11T07:33:48.143Z,8.87
2023-02-11T07:36:17.848Z,8.47
2023-02-11T07:38:46.015Z,8.33
2023-02-11T07:41:15.890Z,7.50
2023-02-11T07:43:44.171Z,8.80
2023-02-11T07:46:14.744Z,12.67
2023-02-11T07:48:44.205Z,8.83
2023-02-11T07:51:14.437Z,7.90
2023-02-11T07:53:42.481Z,7.67
2023-02-11T07:56:11.537Z,7.47
2023-02-11T07:58:42.170Z,7.97
2023-02-11T08:01:12.226Z,8.03
2023-02-11T08:03:42.941Z,8.27
2023-02-11T08:06:14.137Z,8.33
2023-02-11T08:08:42.910Z,8.67
2023-02-11T08:11:12.838Z,8.97
2023-02-11T08:13:41.012Z,9.30
2023-02-11T08:16:10.044Z,9.43
2023-02-11T08:18:38.046Z,9.53
2023-02-11T08:21:07.709Z,8.47
2023-02-11T08:23:37.476Z,8.97
2023-02-11T08:26:07.238Z,8.83
2023-02-11T08:28:37.066Z,8.73
2023-02-11T08:31:07.640Z,9.20
2023-02-11T08:33:36.030Z,8.37
2023-02-11T08:36:09.806Z,8.77
2023-02-11T08:38:39.499Z,8.63
2023-02-11T08:41:07.984Z,7.97
2023-02-11T08:43:36.031Z,7.80
2023-02-11T08:46:04.666Z,8.20
2023-02-11T08:48:32.661Z,8.80
2023-02-11T08:51:00.822Z,9.33
2023-02-11T08:53:28.794Z,8.83
2023-02-11T08:55:58.307Z,8.00
2023-02-11T08:58:26.244Z,8.30
2023-02-11T09:00:54.434Z,7.70
2023-02-11T09:03:22.593Z,7.53
2023-02-11T09:05:53.473Z,8.23
2023-02-11T09:08:22.139Z,8.13
2023-02-11T09:10:50.355Z,7.97
2023-02-11T09:13:19.921Z,7.60
2023-02-11T09:15:48.010Z,7.87
2023-02-11T09:18:16.030Z,7.20
2023-02-11T09:20:44.000Z,6.37
2023-02-11T09:23:12.727Z,6.90
2023-02-11T09:25:41.219Z,6.70
2023-02-11T09:28:09.816Z,6.47
2023-02-11T09:30:40.010Z,6.40
2023-02-11T09:33:08.074Z,6.20
2023-02-11T09:35:36.022Z,5.67
2023-02-11T09:38:04.194Z,6.30
2023-02-11T09:40:32.346Z,7.00
2023-02-11T09:43:05.365Z,6.17
2023-02-11T09:45:33.713Z,5.83
2023-02-11T09:48:06.795Z,5.53
2023-02-11T09:50:37.506Z,6.00
2023-02-11T09:53:11.115Z,5.80
2023-02-11T09:55:42.837Z,5.40
2023-02-11T09:58:15.421Z,5.03
2023-02-11T10:00:49.629Z,5.47
2023-02-11T10:03:39.133Z,5.30
2023-02-11T10:06:20.075Z,6.07
2023-02-11T10:09:00.495Z,5.43
2023-02-11T10:11:37.819Z,6.70
2023-02-11T10:14:22.738Z,6.23
2023-02-11T10:17:05.374Z,6.30
2023-02-11T10:19:50.156Z,5.50
2023-02-11T10:22:23.814Z,5.73
2023-02-11T10:24:55.173Z,6.17
2023-02-11T10:27:29.176Z,6.10
2023-02-11T10:30:03.614Z,5.80
2023-02-11T10:32:40.422Z,5.93
2023-02-11T10:35:18.108Z,5.53
2023-02-11T10:37:46.114Z,5.20
2023-02-11T10:40:16.249Z,5.17
2023-02-11T10:42:47.765Z,5.00
2023-02-11T10:45:20.357Z,4.57
2023-02-11T10:47:48.326Z,4.90
2023-02-11T10:50:24.391Z,4.67
2023-02-11T10:52:52.630Z,4.67
2023-02-11T10:55:22.021Z,4.60
2023-02-11T10:57:57.170Z,4.90
2023-02-11T11:00:38.838Z,5.13
2023-02-11T11:03:17.685Z,4.90
2023-02-11T11:05:51.550Z,5.00
2023-02-11T11:08:20.222Z,5.50
2023-02-11T11:10:49.922Z,5.23
2023-02-11T11:13:30.442Z,6.10
2023-02-11T11:16:20.344Z,5.70
2023-02-11T11:18:49.856Z,5.63
2023-02-11T11:21:22.869Z,5.47
2023-02-11T11:23:55.352Z,5.77
2023-02-11T11:26:24.126Z,5.53
2023-02-11T11:28:56.537Z,5.70
2023-02-11T11:31:27.865Z,6.10
2023-02-11T11:33:59.170Z,5.70
2023-02-11T11:36:36.557Z,6.00
2023-02-11T11:39:20.485Z,6.03
2023-02-11T11:41:59.058Z,6.40
2023-02-11T11:44:32.582Z,5.87
2023-02-11T11:47:26.559Z,5.80
2023-02-11T11:50:13.115Z,6.13
2023-02-11T11:52:47.690Z,6.20
2023-02-11T11:55:20.656Z,6.60
2023-02-11T11:57:49.304Z,5.80
2023-02-11T12:00:22.169Z,6.10
2023-02-11T12:03:26.417Z,6.63
2023-02-11T12:06:13.805Z,6.57
2023-02-11T12:08:53.579Z,6.70
2023-02-11T12:11:27.225Z,5.90
2023-02-11T12:14:07.324Z,15.40
2023-02-11T12:16:45.773Z,6.90
2023-02-11T12:19:52.679Z,6.70
2023-02-11T12:22:34.335Z,6.70
2023-02-11T12:25:24.039Z,6.23
2023-02-11T12:27:58.870Z,7.30
2023-02-11T12:30:49.804Z,6.77
2023-02-11T12:33:32.692Z,7.50
2023-02-11T12:36:05.521Z,6.63
2023-02-11T12:38:47.219Z,6.03
2023-02-11T12:41:53.507Z,6.40
2023-02-11T12:44:32.290Z,7.47
2023-02-11T12:47:10.250Z,6.40
2023-02-11T12:50:03.010Z,6.17
2023-02-11T12:52:45.893Z,6.07
2023-02-11T12:55:21.796Z,5.63
2023-02-11T12:57:52.225Z,5.80
2023-02-11T13:00:24.775Z,6.00
2023-02-11T13:02:55.858Z,5.57
2023-02-11T13:05:26.043Z,5.57
2023-02-11T13:07:55.293Z,5.97
2023-02-11T13:10:28.048Z,5.60
2023-02-11T13:13:15.670Z,6.07
2023-02-11T13:15:43.870Z,5.80
2023-02-11T13:18:19.219Z,6.20
2023-02-11T13:20:49.744Z,5.83
2023-02-11T14:50:59.429Z,4.33
2023-02-11T14:53:29.693Z,4.10
2023-02-11T14:55:57.730Z,4.67
2023-02-11T14:58:27.708Z,4.30
2023-02-11T15:00:58.953Z,3.87
2023-02-11T15:03:33.244Z,4.47
2023-02-11T15:06:06.449Z,4.40
2023-02-11T15:08:38.263Z,4.27
2023-02-11T15:11:12.637Z,4.93
2023-02-11T15:13:47.464Z,4.33
2023-02-11T15:16:19.821Z,4.10
2023-02-11T15:18:51.840Z,4.20
2023-02-11T15:21:26.708Z,4.30
2023-02-11T15:24:00.413Z,4.17
2023-02-11T15:26:28.744Z,4.40
2023-02-11T15:28:56.803Z,4.00
2023-02-11T15:31:27.826Z,4.37
2023-02-11T15:33:56.017Z,3.90
2023-02-11T15:36:33.146Z,4.27
2023-02-11T15:39:20.354Z,3.83
2023-02-11T15:41:48.370Z,4.20
2023-02-11T15:44:29.212Z,3.93
2023-02-11T15:46:57.670Z,3.97
2023-02-11T15:49:26.249Z,4.40
2023-02-11T15:51:58.908Z,4.53
2023-02-11T15:54:30.056Z,4.60
2023-02-11T15:57:03.464Z,4.70
2023-02-11T15:59:35.426Z,4.83
2023-02-11T16:02:09.647Z,5.50
2023-02-11T16:04:38.582Z,4.30
2023-02-11T16:07:08.040Z,4.33
2023-02-11T16:09:37.696Z,4.60
2023-02-11T16:12:23.810Z,4.70
2023-02-11T16:14:51.793Z,4.50
2023-02-11T16:17:27.071Z,4.47
2023-02-11T16:19:55.973Z,4.73
2023-02-11T16:22:28.162Z,4.83
2023-02-11T16:24:58.737Z,4.67
2023-02-11T16:27:30.502Z,4.27
2023-02-11T16:29:59.526Z,4.80
2023-02-11T16:32:29.452Z,4.60
2023-02-11T16:35:00.867Z,4.77
2023-02-11T16:37:30.551Z,4.20
2023-02-11T16:39:58.642Z,4.40
2023-02-11T16:42:26.933Z,4.70
2023-02-11T16:44:55.139Z,4.63
2023-02-11T16:47:26.023Z,6.23
2023-02-11T16:49:55.135Z,4.90
2023-02-11T16:52:23.585Z,7.67
2023-02-11T16:54:53.029Z,6.83
2023-02-11T16:57:23.281Z,5.57
2023-02-11T16:59:52.260Z,7.43
2023-02-11T17:02:24.380Z,6.40
2023-02-11T17:04:54.501Z,7.63
2023-02-11T17:07:23.183Z,9.83
2023-02-11T17:09:53.068Z,32.50
2023-02-11T17:12:21.585Z,14.00
2023-02-11T17:14:49.562Z,11.23
2023-02-11T17:17:17.573Z,11.10
2023-02-11T17:19:47.836Z,7.77
2023-02-11T17:22:15.981Z,8.07
2023-02-11T17:24:43.933Z,18.17
2023-02-11T17:27:13.958Z,6.10
2023-02-11T17:29:42.116Z,8.30
2023-02-11T17:32:10.166Z,9.43
2023-02-11T17:34:39.242Z,27.97
2023-02-11T17:37:09.354Z,34.60
2023-02-11T17:39:37.888Z,26.47
2023-02-11T17:42:07.252Z,10.03
2023-02-11T17:44:37.341Z,8.97
2023-02-11T17:47:05.449Z,7.60
2023-02-11T17:49:33.545Z,8.03
2023-02-11T17:52:01.509Z,14.50
2023-02-11T17:54:29.682Z,9.23
2023-02-11T17:57:00.075Z,9.57
2023-02-11T17:59:31.717Z,13.47
2023-02-11T18:02:01.057Z,19.70
2023-02-11T18:04:29.342Z,16.93
2023-02-11T18:06:57.679Z,28.63
2023-02-11T18:09:26.153Z,17.57
2023-02-11T18:11:54.169Z,12.70
2023-02-11T18:14:23.225Z,13.87
2023-02-11T18:16:51.994Z,19.33
2023-02-11T18:19:22.199Z,62.60
2023-02-11T18:21:51.069Z,14.50
2023-02-11T18:24:19.755Z,12.17
2023-02-11T18:26:47.773Z,37.73
2023-02-11T18:29:15.774Z,10.00
2023-02-11T18:31:43.769Z,9.37
2023-02-11T18:34:12.432Z,9.30
2023-02-11T18:36:41.808Z,9.60
2023-02-11T18:39:10.256Z,9.57
2023-02-11T18:41:40.104Z,9.87
2023-02-11T18:44:08.330Z,10.00
2023-02-11T18:46:36.374Z,11.07
2023-02-11T18:49:04.487Z,10.17
2023-02-11T18:51:32.670Z,12.23
2023-02-11T18:54:02.276Z,11.80
2023-02-11T18:56:30.424Z,14.03
2023-02-11T18:59:01.307Z,16.27
2023-02-11T19:01:31.099Z,16.33
2023-02-11T19:04:02.863Z,12.87
2023-02-11T19:06:32.972Z,11.50
2023-02-11T19:09:04.966Z,11.90
2023-02-11T19:11:50.289Z,11.47
2023-02-11T19:14:21.184Z,11.47
2023-02-11T19:16:50.700Z,11.57
2023-02-11T19:19:20.085Z,12.60
2023-02-11T19:21:48.859Z,12.43
2023-02-11T19:24:20.046Z,14.57
2023-02-11T19:26:49.737Z,14.40
2023-02-11T19:29:18.384Z,16.30
2023-02-11T19:31:46.834Z,28.17
2023-02-11T19:34:16.526Z,23.17
2023-02-11T19:36:44.963Z,36.27
2023-02-11T19:39:13.350Z,22.30
2023-02-11T19:41:42.854Z,22.57
2023-02-11T19:44:11.135Z,56.53
2023-02-11T19:46:40.957Z,64.93
2023-02-11T19:49:09.986Z,58.20
2023-02-11T19:51:39.319Z,66.00
2023-02-11T19:54:08.231Z,191.10
2023-02-11T19:56:38.006Z,215.20
2023-02-11T19:59:09.095Z,88.23
2023-02-11T20:01:38.024Z,48.37
2023-02-11T20:04:06.408Z,64.10
2023-02-11T20:06:35.560Z,42.33
2023-02-11T20:09:06.572Z,30.03
2023-02-11T20:11:35.781Z,24.07
2023-02-11T20:14:04.516Z,24.43
2023-02-11T20:16:47.430Z,25.70
2023-02-11T20:19:18.508Z,24.23
2023-02-11T20:21:48.176Z,22.83
2023-02-11T20:24:16.401Z,23.10
2023-02-11T20:26:46.528Z,24.73
2023-02-11T20:29:15.318Z,36.30
2023-02-11T20:31:44.903Z,30.20
2023-02-11T20:34:13.093Z,26.83
2023-02-11T20:36:42.123Z,29.43
2023-02-11T20:39:17.187Z,33.63
2023-02-11T20:41:46.572Z,48.30
2023-02-11T20:44:14.811Z,53.63
2023-02-11T20:46:47.144Z,245.03
2023-02-11T20:49:16.735Z,110.57
2023-02-11T20:51:45.078Z,33.47
2023-02-11T20:54:14.392Z,30.87
2023-02-11T20:56:43.064Z,29.53
2023-02-11T20:59:14.303Z,28.00
2023-02-11T21:01:46.365Z,27.57
2023-02-11T21:04:16.517Z,24.70
2023-02-11T21:06:47.323Z,26.67
2023-02-11T21:09:17.628Z,25.13
2023-02-11T21:11:45.565Z,24.10
2023-02-11T21:14:14.227Z,25.13
2023-02-11T21:16:42.701Z,24.70
2023-02-11T21:19:12.714Z,24.77
2023-02-11T21:21:41.235Z,25.00
2023-02-11T21:24:11.570Z,23.70
2023-02-11T21:26:40.027Z,23.60
2023-02-11T21:29:09.006Z,24.53
2023-02-11T21:31:37.924Z,23.90
2023-02-11T21:34:06.647Z,23.43
2023-02-11T21:36:36.163Z,25.17
2023-02-11T21:39:05.635Z,24.97
2023-02-11T21:41:33.920Z,24.90
2023-02-11T21:44:02.011Z,26.87
2023-02-11T21:46:30.868Z,25.17
2023-02-11T21:49:00.437Z,27.23
2023-02-11T21:51:28.717Z,26.67
2023-02-11T21:53:59.805Z,24.17
2023-02-11T21:56:28.518Z,24.20
2023-02-11T21:58:58.444Z,24.00
2023-02-11T22:01:28.718Z,24.17
2023-02-11T22:03:57.210Z,25.93
2023-02-11T22:06:27.857Z,24.77
2023-02-11T22:08:57.331Z,23.87
2023-02-11T22:11:25.349Z,21.53
2023-02-11T22:13:56.465Z,20.97
2023-02-11T22:16:25.152Z,20.93
2023-02-11T22:18:53.315Z,21.67
2023-02-11T22:21:23.123Z,23.60
2023-02-11T22:23:52.189Z,22.87
2023-02-11T22:26:23.449Z,23.20
2023-02-11T22:28:52.474Z,22.63
2023-02-11T22:31:22.401Z,22.57
2023-02-11T22:33:51.031Z,21.73
2023-02-11T22:36:21.354Z,22.60
2023-02-11T22:38:49.820Z,21.77
2023-02-11T22:41:18.518Z,24.10
2023-02-11T22:43:48.423Z,24.60
2023-02-11T22:46:18.968Z,25.37
2023-02-11T22:48:47.991Z,23.97
2023-02-11T22:51:19.484Z,23.03
2023-02-11T22:53:50.949Z,22.80
2023-02-11T22:56:19.439Z,22.50
2023-02-11T22:58:49.955Z,22.70
2023-02-11T23:01:18.864Z,21.83
2023-02-11T23:03:46.946Z,23.30
2023-02-11T23:06:15.072Z,23.13
2023-02-11T23:08:43.373Z,22.63
2023-02-11T23:11:14.297Z,22.30
2023-02-11T23:13:43.038Z,21.83
2023-02-11T23:16:14.355Z,21.33
2023-02-11T23:18:44.155Z,20.57
2023-02-11T23:21:16.065Z,20.67
2023-02-11T23:23:45.048Z,21.40
2023-02-11T23:26:14.493Z,21.33
2023-02-11T23:28:46.094Z,20.47
2023-02-11T23:31:18.031Z,20.63
2023-02-11T23:33:47.166Z,20.27
2023-02-11T23:36:15.851Z,20.73
2023-02-11T23:38:44.514Z,20.23
2023-02-11T23:41:12.930Z,19.67
2023-02-11T23:43:41.112Z,19.87
2023-02-11T23:46:09.946Z,19.30
2023-02-11T23:48:40.528Z,19.20
2023-02-11T23:51:09.730Z,18.87
2023-02-11T23:53:38.203Z,18.60
2023-02-11T23:56:08.605Z,19.00
2023-02-11T23:58:36.921Z,19.27
